createdAt,value
2023-05-10T00:02:30.347Z,3.45
2023-05-10T00:05:33.485Z,3.03
2023-05-10T00:08:35.674Z,3.77
2023-05-10T00:11:39.510Z,2.85
2023-05-10T00:14:41.808Z,3.50
2023-05-10T00:17:44.302Z,2.22
2023-05-10T00:20:48.450Z,3.22
2023-05-10T00:23:52.621Z,3.22
2023-05-10T00:26:54.802Z,3.03
2023-05-10T00:29:57.261Z,3.42
2023-05-10T00:32:59.484Z,3.60
2023-05-10T00:36:02.336Z,3.58
2023-05-10T00:39:04.694Z,3.30
2023-05-10T00:42:07.195Z,3.20
2023-05-10T00:45:09.816Z,4.57
2023-05-10T00:48:12.684Z,3.90
2023-05-10T00:51:15.044Z,3.62
2023-05-10T00:54:17.606Z,3.35
2023-05-10T00:57:20.727Z,3.28
2023-05-10T01:00:23.278Z,4.00
2023-05-10T01:03:26.506Z,4.03
2023-05-10T01:06:29.417Z,3.15
2023-05-10T01:09:32.412Z,3.33
2023-05-10T01:12:41.375Z,4.68
2023-05-10T01:15:43.707Z,4.62
2023-05-10T01:18:46.589Z,4.20
2023-05-10T01:22:19.889Z,4.03
2023-05-10T01:25:52.606Z,3.57
2023-05-10T01:29:08.735Z,4.37
2023-05-10T01:32:21.584Z,3.95
2023-05-10T01:35:30.657Z,4.25
2023-05-10T01:38:37.567Z,4.62
2023-05-10T01:41:50.495Z,4.20
2023-05-10T01:45:14.626Z,4.22
2023-05-10T01:48:19.492Z,4.60
2023-05-10T01:51:25.197Z,3.80
2023-05-10T01:54:29.845Z,4.85
2023-05-10T01:57:38.251Z,3.92
2023-05-10T02:00:45.640Z,4.12
2023-05-10T02:03:50.844Z,4.28
2023-05-10T02:06:55.068Z,5.25
2023-05-10T02:09:58.617Z,3.85
2023-05-10T02:13:02.771Z,3.58
2023-05-10T02:16:06.949Z,5.55
2023-05-10T02:19:11.107Z,4.20
2023-05-10T02:22:14.308Z,3.85
2023-05-10T02:25:19.067Z,4.60
2023-05-10T02:28:22.662Z,3.80
2023-05-10T02:31:26.626Z,3.75
2023-05-10T02:37:33.277Z,3.53
2023-05-10T02:40:37.775Z,4.65
2023-05-10T02:43:41.654Z,3.83
2023-05-10T02:49:47.144Z,4.18
2023-05-10T02:52:57.393Z,3.53
2023-05-10T02:56:05.204Z,4.32
2023-05-10T02:59:07.510Z,4.60
2023-05-10T03:02:11.329Z,4.30
2023-05-10T03:08:16.089Z,3.83
2023-05-10T03:12:20.110Z,4.00
2023-05-10T03:15:58.525Z,4.00
2023-05-10T03:19:20.589Z,4.15
2023-05-10T03:22:43.935Z,3.87
2023-05-10T03:25:48.912Z,4.55
2023-05-10T03:28:53.399Z,4.12
2023-05-10T03:31:56.177Z,4.43
2023-05-10T03:34:58.629Z,4.10
2023-05-10T03:38:01.666Z,5.20
2023-05-10T03:41:04.230Z,4.68
2023-05-10T03:44:06.569Z,4.28
2023-05-10T03:47:09.194Z,4.30
2023-05-10T03:50:11.647Z,4.37
2023-05-10T03:53:14.116Z,4.20
2023-05-10T03:56:16.424Z,5.00
2023-05-10T03:59:18.902Z,4.03
2023-05-10T04:02:21.166Z,5.25
2023-05-10T04:05:23.689Z,4.90
2023-05-10T04:08:27.097Z,4.70
2023-05-10T04:11:29.557Z,4.20
2023-05-10T04:14:31.734Z,5.25
2023-05-10T04:17:34.279Z,4.40
2023-05-10T04:20:36.450Z,4.85
2023-05-10T04:23:39.107Z,4.45
2023-05-10T04:26:41.360Z,5.07
2023-05-10T04:29:43.898Z,4.75
2023-05-10T04:32:46.122Z,4.65
2023-05-10T04:35:48.627Z,5.87
2023-05-10T04:38:50.826Z,4.95
2023-05-10T04:41:53.279Z,4.93
2023-05-10T04:44:55.702Z,4.45
2023-05-10T04:47:58.163Z,4.97
2023-05-10T04:51:00.668Z,5.07
2023-05-10T04:54:06.487Z,4.83
2023-05-10T04:57:09.024Z,4.20
2023-05-10T05:00:12.092Z,5.35
2023-05-10T05:03:14.541Z,5.63
2023-05-10T05:06:17.129Z,5.47
2023-05-10T05:09:25.375Z,4.30
2023-05-10T05:12:27.891Z,5.07
2023-05-10T05:15:31.497Z,5.30
2023-05-10T05:18:33.964Z,5.32
2023-05-10T05:21:37.060Z,5.35
2023-05-10T05:27:42.215Z,5.45
2023-05-10T05:30:45.571Z,5.17
2023-05-10T05:33:47.775Z,5.57
2023-05-10T05:36:50.324Z,5.00
2023-05-10T05:39:52.714Z,5.93
2023-05-10T05:42:55.412Z,5.53
2023-05-10T05:46:01.983Z,5.43
2023-05-10T05:49:05.905Z,5.37
2023-05-10T05:52:08.699Z,5.03
2023-05-10T05:55:11.519Z,4.37
2023-05-10T05:58:13.846Z,4.80
2023-05-10T06:01:16.352Z,4.23
2023-05-10T06:04:19.150Z,4.27
2023-05-10T06:07:22.062Z,3.93
2023-05-10T06:10:26.436Z,4.25
2023-05-10T06:13:33.415Z,3.60
2023-05-10T06:16:51.336Z,4.28
2023-05-10T06:19:57.273Z,4.37
2023-05-10T06:23:00.130Z,4.95
2023-05-10T06:26:02.560Z,4.40
2023-05-10T06:29:05.235Z,4.22
2023-05-10T06:32:09.936Z,3.93
2023-05-10T06:35:12.619Z,3.78
2023-05-10T06:38:17.260Z,4.80
2023-05-10T06:41:22.023Z,5.28
2023-05-10T06:44:25.835Z,4.45
2023-05-10T06:47:29.827Z,4.50
2023-05-10T06:50:32.236Z,5.05
2023-05-10T06:54:39.649Z,4.78
2023-05-10T06:57:46.758Z,4.68
2023-05-10T07:00:58.701Z,5.53
2023-05-10T07:04:02.389Z,4.55
2023-05-10T07:07:07.643Z,5.25
2023-05-10T07:14:36.031Z,4.40
2023-05-10T07:17:39.431Z,4.50
2023-05-10T07:20:42.870Z,4.75
2023-05-10T07:23:45.396Z,4.32
2023-05-10T07:26:47.561Z,5.10
2023-05-10T07:29:50.050Z,4.40
2023-05-10T07:32:52.233Z,4.12
2023-05-10T07:35:54.855Z,4.90
2023-05-10T07:38:58.450Z,4.45
2023-05-10T07:42:00.992Z,4.03
2023-05-10T07:45:03.244Z,4.43
2023-05-10T07:48:05.939Z,5.25
2023-05-10T07:51:10.320Z,4.10
2023-05-10T07:54:13.680Z,4.50
2023-05-10T07:57:18.546Z,4.20
2023-05-10T08:00:21.791Z,3.75
2023-05-10T08:03:24.381Z,4.40
2023-05-10T08:06:29.052Z,4.05
2023-05-10T08:09:31.637Z,4.10
2023-05-10T08:12:33.765Z,4.65
2023-05-10T08:15:36.376Z,3.85
2023-05-10T08:18:39.189Z,4.85
2023-05-10T08:21:43.371Z,4.30
2023-05-10T08:24:48.714Z,3.45
2023-05-10T08:27:51.702Z,4.07
2023-05-10T08:30:54.189Z,4.32
2023-05-10T08:33:56.881Z,4.47
2023-05-10T08:36:59.247Z,4.47
2023-05-10T08:40:01.972Z,4.43
2023-05-10T08:43:09.749Z,4.15
2023-05-10T08:46:14.659Z,4.72
2023-05-10T08:49:21.221Z,5.22
2023-05-10T08:52:26.242Z,4.45
2023-05-10T08:55:29.593Z,4.10
2023-05-10T08:58:33.020Z,4.28
2023-05-10T09:01:37.665Z,4.18
2023-05-10T09:04:40.229Z,4.00
2023-05-10T09:07:43.114Z,4.25
2023-05-10T09:10:48.495Z,3.95
2023-05-10T09:13:52.715Z,4.25
2023-05-10T09:16:56.431Z,3.83
2023-05-10T09:20:04.907Z,3.85
2023-05-10T09:23:08.125Z,4.50
2023-05-10T09:26:10.517Z,4.47
2023-05-10T09:29:14.667Z,4.72
2023-05-10T09:32:17.604Z,4.45
2023-05-10T09:35:22.419Z,4.57
2023-05-10T09:38:24.960Z,3.85
2023-05-10T09:41:29.017Z,4.10
2023-05-10T09:44:32.811Z,3.62
2023-05-10T09:47:36.380Z,3.92
2023-05-10T09:53:41.071Z,3.33
2023-05-10T09:56:44.020Z,3.83
2023-05-10T09:59:46.686Z,5.47
2023-05-10T10:02:56.366Z,4.78
2023-05-10T10:05:58.942Z,3.80
2023-05-10T10:09:01.251Z,3.40
2023-05-10T10:12:05.600Z,3.77
2023-05-10T10:15:10.393Z,3.40
2023-05-10T10:18:16.457Z,3.08
2023-05-10T10:21:19.534Z,4.30
2023-05-10T10:24:22.117Z,3.65
2023-05-10T10:27:52.387Z,3.75
2023-05-10T10:30:56.416Z,2.97
2023-05-10T10:34:30.544Z,3.10
2023-05-10T10:37:46.287Z,3.70
2023-05-10T10:40:48.941Z,4.35
2023-05-10T10:44:24.674Z,2.80
2023-05-10T10:47:32.008Z,2.87
2023-05-10T10:50:44.865Z,2.87
2023-05-10T10:53:51.429Z,2.80
2023-05-10T10:57:16.940Z,2.83
2023-05-10T11:00:20.679Z,2.83
2023-05-10T11:03:24.645Z,3.33
2023-05-10T11:06:34.788Z,3.05
2023-05-10T11:09:40.958Z,2.55
2023-05-10T11:13:03.518Z,2.10
2023-05-10T11:16:15.523Z,2.40
2023-05-10T11:19:21.903Z,2.42
2023-05-10T11:22:26.657Z,2.65
2023-05-10T11:25:29.300Z,2.62
2023-05-10T11:28:31.857Z,2.45
2023-05-10T11:31:48.984Z,2.42
2023-05-10T11:34:51.737Z,2.70
2023-05-10T11:37:57.016Z,2.45
2023-05-10T11:40:59.546Z,2.17
2023-05-10T11:44:03.051Z,2.05
2023-05-10T11:47:06.501Z,2.75
2023-05-10T11:50:09.082Z,2.50
2023-05-10T11:53:11.521Z,2.72
2023-05-10T11:56:15.036Z,2.28
2023-05-10T11:59:17.654Z,2.37
2023-05-10T12:02:20.400Z,2.40
2023-05-10T12:05:25.379Z,2.33
2023-05-10T12:08:29.394Z,2.47
2023-05-10T12:11:31.806Z,2.87
2023-05-10T12:14:36.838Z,2.10
2023-05-10T12:17:43.346Z,2.20
2023-05-10T12:20:45.818Z,2.50
2023-05-10T12:27:33.579Z,2.42
2023-05-10T12:30:37.439Z,2.87
2023-05-10T12:33:45.555Z,2.30
2023-05-10T12:36:51.791Z,2.25
2023-05-10T12:39:53.998Z,2.83
2023-05-10T12:42:56.476Z,3.53
2023-05-10T12:45:59.162Z,3.08
2023-05-10T12:49:08.960Z,2.53
2023-05-10T12:52:17.788Z,2.08
2023-05-10T12:55:20.353Z,1.87
2023-05-10T12:58:34.911Z,2.60
2023-05-10T13:01:38.231Z,2.47
2023-05-10T13:04:40.813Z,1.90
2023-05-10T13:07:44.835Z,2.17
2023-05-10T13:10:47.069Z,1.73
2023-05-10T13:13:49.556Z,3.00
2023-05-10T13:16:51.831Z,2.28
2023-05-10T13:19:54.816Z,1.50
2023-05-10T13:22:57.322Z,1.80
2023-05-10T13:25:59.826Z,1.87
2023-05-10T13:29:02.120Z,1.80
2023-05-10T13:32:05.426Z,1.40
2023-05-10T13:35:09.116Z,1.92
2023-05-10T13:38:11.683Z,2.10
2023-05-10T13:41:13.873Z,1.92
2023-05-10T13:44:16.721Z,2.20
2023-05-10T13:47:19.160Z,1.90
2023-05-10T13:50:23.046Z,1.70
2023-05-10T13:53:27.851Z,2.40
2023-05-10T13:56:30.485Z,2.37
2023-05-10T13:59:33.305Z,2.80
2023-05-10T14:02:36.206Z,1.75
2023-05-10T14:05:38.919Z,1.60
2023-05-10T14:08:41.375Z,2.03
2023-05-10T14:11:44.518Z,1.33
2023-05-10T14:14:46.843Z,2.17
2023-05-10T14:17:49.866Z,1.77
2023-05-10T14:20:52.367Z,1.60
2023-05-10T14:23:55.343Z,3.05
2023-05-10T14:26:57.501Z,1.50
2023-05-10T14:29:59.986Z,1.85
2023-05-10T14:33:03.878Z,1.33
2023-05-10T14:36:07.456Z,1.33
2023-05-10T14:39:11.063Z,1.55
2023-05-10T14:42:13.488Z,2.10
2023-05-10T14:45:18.546Z,1.95
2023-05-10T14:48:22.279Z,2.20
2023-05-10T14:51:24.446Z,2.05
2023-05-10T14:54:27.229Z,1.77
2023-05-10T14:57:33.248Z,1.67
2023-05-10T15:00:35.705Z,2.47
2023-05-10T15:03:38.704Z,1.85
2023-05-10T15:06:42.524Z,1.98
2023-05-10T15:09:45.610Z,1.90
2023-05-10T15:15:50.321Z,1.33
2023-05-10T15:18:52.879Z,1.20
2023-05-10T15:21:55.274Z,1.80
2023-05-10T15:24:58.056Z,1.97
2023-05-10T15:28:00.228Z,1.58
2023-05-10T15:31:02.728Z,1.75
2023-05-10T15:34:05.050Z,1.80
2023-05-10T15:37:07.641Z,1.60
2023-05-10T15:40:10.172Z,1.60
2023-05-10T15:43:12.825Z,1.60
2023-05-10T15:46:15.007Z,1.48
2023-05-10T15:49:18.382Z,1.65
2023-05-10T15:52:21.605Z,1.83
2023-05-10T15:55:24.258Z,2.12
2023-05-10T15:58:26.471Z,1.52
2023-05-10T16:01:29.463Z,1.50
2023-05-10T16:04:32.200Z,1.87
2023-05-10T16:07:34.345Z,1.67
2023-05-10T16:10:38.057Z,1.30
2023-05-10T16:13:40.525Z,1.60
2023-05-10T16:16:43.454Z,2.23
2023-05-10T16:19:46.778Z,1.67
2023-05-10T16:22:49.390Z,2.15
2023-05-10T16:25:51.942Z,1.55
2023-05-10T16:28:54.968Z,1.77
2023-05-10T16:31:57.105Z,1.77
2023-05-10T16:35:00.398Z,1.92
2023-05-10T16:38:03.975Z,1.92
2023-05-10T16:44:09.019Z,1.77
2023-05-10T16:47:11.502Z,2.10
2023-05-10T16:50:14.915Z,2.47
2023-05-10T16:53:18.091Z,2.28
2023-05-10T16:56:22.217Z,2.22
2023-05-10T16:59:24.722Z,1.90
2023-05-10T17:02:27.144Z,1.92
2023-05-10T17:05:29.780Z,2.03
2023-05-10T17:08:32.113Z,2.20
2023-05-10T17:11:34.738Z,2.43
2023-05-10T17:14:38.116Z,2.35
2023-05-10T17:17:40.724Z,2.65
2023-05-10T17:20:45.112Z,2.62
2023-05-10T17:23:47.654Z,2.85
2023-05-10T17:26:49.857Z,2.33
2023-05-10T17:29:57.102Z,2.12
2023-05-10T17:33:00.579Z,2.50
2023-05-10T17:36:03.846Z,2.80
2023-05-10T17:39:06.297Z,2.70
2023-05-10T17:42:08.910Z,3.12
2023-05-10T17:45:12.005Z,2.45
2023-05-10T17:48:14.546Z,2.45
2023-05-10T17:51:16.882Z,2.30
2023-05-10T17:54:19.478Z,2.53
2023-05-10T17:57:23.824Z,2.80
2023-05-10T18:00:26.649Z,2.70
2023-05-10T18:03:29.610Z,3.10
2023-05-10T18:06:36.099Z,2.33
2023-05-10T18:09:38.692Z,2.90
2023-05-10T18:12:40.897Z,3.05
2023-05-10T18:15:43.827Z,2.27
2023-05-10T18:18:46.061Z,2.85
2023-05-10T18:21:49.275Z,2.25
2023-05-10T18:24:51.671Z,2.33
2023-05-10T18:27:54.311Z,2.42
2023-05-10T18:30:56.618Z,2.87
2023-05-10T18:33:59.147Z,2.55
2023-05-10T18:37:03.124Z,2.75
2023-05-10T18:40:09.551Z,2.53
2023-05-10T18:43:11.935Z,2.03
2023-05-10T18:46:15.264Z,2.37
2023-05-10T18:49:18.100Z,2.10
2023-05-10T18:52:20.822Z,2.75
2023-05-10T18:55:25.763Z,2.65
2023-05-10T18:58:29.512Z,2.80
2023-05-10T19:01:31.947Z,2.42
2023-05-10T19:04:34.683Z,2.53
2023-05-10T19:07:37.013Z,2.78
2023-05-10T19:10:39.913Z,3.67
2023-05-10T19:13:42.813Z,2.22
2023-05-10T19:16:45.424Z,2.55
2023-05-10T19:19:49.020Z,2.33
2023-05-10T19:23:08.467Z,2.53
2023-05-10T19:26:14.231Z,2.17
2023-05-10T19:29:17.029Z,2.47
2023-05-10T19:32:19.684Z,2.67
2023-05-10T19:35:22.314Z,2.35
2023-05-10T19:38:28.684Z,2.65
2023-05-10T19:41:31.397Z,2.33
2023-05-10T19:44:33.599Z,2.70
2023-05-10T19:47:36.344Z,2.58
2023-05-10T19:50:39.164Z,2.97
2023-05-10T19:53:44.896Z,2.60
2023-05-10T19:56:47.456Z,2.80
2023-05-10T19:59:50.035Z,2.67
2023-05-10T20:02:54.167Z,3.40
2023-05-10T20:05:57.084Z,3.58
2023-05-10T20:08:59.247Z,2.62
2023-05-10T20:12:02.376Z,3.00
2023-05-10T20:15:06.939Z,2.78
2023-05-10T20:18:09.453Z,3.00
2023-05-10T20:21:11.883Z,3.05
2023-05-10T20:24:14.475Z,2.92
2023-05-10T20:27:17.076Z,3.12
2023-05-10T20:30:19.993Z,2.33
2023-05-10T20:33:22.972Z,2.10
2023-05-10T20:36:26.762Z,2.45
2023-05-10T20:39:29.982Z,2.50
2023-05-10T20:42:32.629Z,2.20
2023-05-10T20:45:37.551Z,2.53
2023-05-10T20:48:40.394Z,1.90
2023-05-10T20:51:42.673Z,2.40
2023-05-10T20:54:45.302Z,2.60
2023-05-10T20:57:47.558Z,3.33
2023-05-10T21:00:50.253Z,2.33
2023-05-10T21:03:52.462Z,2.42
2023-05-10T21:06:56.892Z,2.30
2023-05-10T21:09:59.110Z,2.17
2023-05-10T21:13:02.085Z,2.55
2023-05-10T21:16:04.634Z,1.95
2023-05-10T21:19:07.638Z,2.60
2023-05-10T21:22:12.100Z,2.92
2023-05-10T21:25:14.683Z,2.65
2023-05-10T21:28:16.898Z,2.78
2023-05-10T21:31:19.407Z,2.33
2023-05-10T21:34:21.905Z,2.47
2023-05-10T21:37:24.339Z,2.70
2023-05-10T21:40:26.522Z,2.47
2023-05-10T21:43:29.068Z,2.80
2023-05-10T21:46:31.824Z,2.97
2023-05-10T21:49:34.328Z,2.60
2023-05-10T21:52:37.348Z,3.05
2023-05-10T21:55:39.958Z,3.00
2023-05-10T21:58:42.140Z,2.87
2023-05-10T22:01:45.091Z,2.42
2023-05-10T22:04:47.833Z,2.90
2023-05-10T22:07:50.255Z,2.55
2023-05-10T22:10:52.864Z,2.77
2023-05-10T22:13:55.019Z,2.53
2023-05-10T22:16:58.032Z,2.15
2023-05-10T22:20:00.370Z,2.97
2023-05-10T22:23:03.033Z,3.05
2023-05-10T22:26:05.562Z,2.20
2023-05-10T22:29:08.040Z,2.67
2023-05-10T22:32:10.336Z,2.40
2023-05-10T22:35:12.817Z,2.70
2023-05-10T22:38:15.073Z,2.67
2023-05-10T22:41:17.571Z,2.72
2023-05-10T22:44:19.859Z,2.42
2023-05-10T22:47:22.432Z,3.25
2023-05-10T22:50:25.268Z,2.40
2023-05-10T22:53:27.800Z,2.90
2023-05-10T22:56:30.996Z,2.37
2023-05-10T22:59:34.161Z,2.30
2023-05-10T23:02:36.532Z,2.60
2023-05-10T23:05:39.003Z,2.55
2023-05-10T23:08:41.129Z,2.80
2023-05-10T23:11:43.596Z,2.60
2023-05-10T23:14:47.507Z,2.37
2023-05-10T23:17:50.418Z,2.33
2023-05-10T23:20:53.199Z,2.70
2023-05-10T23:23:55.729Z,2.92
2023-05-10T23:26:57.937Z,2.50
2023-05-10T23:30:00.454Z,2.53
2023-05-10T23:33:03.197Z,2.80
2023-05-10T23:36:05.924Z,2.62
2023-05-10T23:39:08.185Z,2.95
2023-05-10T23:42:10.705Z,2.75
2023-05-10T23:45:12.902Z,2.97
2023-05-10T23:48:15.435Z,2.40
2023-05-10T23:51:17.624Z,3.17
2023-05-10T23:54:20.143Z,3.12
2023-05-10T23:57:22.328Z,2.75
